createdAt,value
2017-10-27T00:00:13.908Z,14.90
2017-10-27T00:02:40.140Z,14.25
2017-10-27T00:05:06.374Z,14.95
2017-10-27T00:07:32.785Z,13.13
2017-10-27T00:09:59.007Z,14.68
2017-10-27T00:12:25.180Z,13.48
2017-10-27T00:14:51.799Z,13.90
2017-10-27T00:17:18.148Z,13.68
2017-10-27T00:19:44.375Z,13.20
2017-10-27T00:22:10.954Z,13.57
2017-10-27T00:24:37.185Z,13.00
2017-10-27T00:27:03.406Z,12.95
2017-10-27T00:29:29.625Z,14.00
2017-10-27T00:31:55.944Z,13.18
2017-10-27T00:34:22.215Z,13.82
2017-10-27T00:36:48.470Z,13.85
2017-10-27T00:39:14.706Z,13.13
2017-10-27T00:41:40.976Z,13.32
2017-10-27T00:44:07.192Z,14.95
2017-10-27T00:46:33.428Z,13.38
2017-10-27T00:48:59.621Z,14.00
2017-10-27T00:51:26.216Z,13.60
2017-10-27T00:53:52.424Z,15.55
2017-10-27T00:56:18.670Z,15.18
2017-10-27T00:58:44.881Z,16.40
2017-10-27T01:01:11.146Z,13.43
2017-10-27T01:03:37.372Z,13.62
2017-10-27T01:06:03.630Z,13.75
2017-10-27T01:08:30.221Z,14.38
2017-10-27T01:11:03.269Z,13.70
2017-10-27T01:13:29.520Z,13.90
2017-10-27T01:15:55.782Z,14.02
2017-10-27T01:18:22.038Z,14.25
2017-10-27T01:20:48.346Z,14.25
2017-10-27T01:23:14.578Z,14.30
2017-10-27T01:25:40.919Z,14.60
2017-10-27T01:28:07.177Z,14.50
2017-10-27T01:30:33.412Z,13.70
2017-10-27T01:32:59.630Z,13.13
2017-10-27T01:35:25.887Z,13.10
2017-10-27T01:37:52.142Z,14.57
2017-10-27T01:40:18.402Z,12.85
2017-10-27T01:42:45.021Z,15.38
2017-10-27T01:45:11.260Z,14.60
2017-10-27T01:47:37.897Z,13.95
2017-10-27T01:50:04.121Z,14.25
2017-10-27T01:52:30.751Z,12.40
2017-10-27T01:54:56.975Z,13.13
2017-10-27T01:57:23.255Z,14.35
2017-10-27T01:59:49.485Z,13.45
2017-10-27T02:02:15.772Z,13.32
2017-10-27T02:04:42.025Z,12.13
2017-10-27T02:07:08.256Z,14.27
2017-10-27T02:09:34.489Z,13.62
2017-10-27T02:12:00.752Z,13.68
2017-10-27T02:14:27.034Z,12.13
2017-10-27T02:16:53.656Z,12.90
2017-10-27T02:19:19.984Z,12.00
2017-10-27T02:21:46.244Z,13.75
2017-10-27T02:24:12.473Z,13.85
2017-10-27T02:26:38.717Z,12.57
2017-10-27T02:29:04.948Z,11.80
2017-10-27T02:31:31.195Z,12.35
2017-10-27T02:33:57.429Z,11.43
2017-10-27T02:36:23.965Z,12.25
2017-10-27T02:38:50.183Z,12.82
2017-10-27T02:41:16.416Z,11.80
2017-10-27T02:43:42.628Z,11.43
2017-10-27T02:46:08.858Z,11.25
2017-10-27T02:48:35.107Z,11.75
2017-10-27T02:51:01.459Z,13.13
2017-10-27T02:53:27.680Z,12.20
2017-10-27T02:55:53.907Z,12.63
2017-10-27T02:58:20.320Z,13.05
2017-10-27T03:00:46.542Z,13.45
2017-10-27T03:03:12.783Z,14.02
2017-10-27T03:05:39.010Z,14.50
2017-10-27T03:08:05.237Z,12.55
2017-10-27T03:10:31.484Z,13.52
2017-10-27T03:12:57.726Z,13.38
2017-10-27T03:15:24.373Z,13.20
2017-10-27T03:17:50.633Z,12.23
2017-10-27T03:20:16.840Z,13.13
2017-10-27T03:22:43.071Z,13.38
2017-10-27T03:25:09.307Z,13.35
2017-10-27T03:27:35.525Z,13.43
2017-10-27T03:30:01.774Z,11.80
2017-10-27T03:32:28.020Z,13.23
2017-10-27T03:34:54.298Z,11.85
2017-10-27T03:37:20.915Z,13.30
2017-10-27T03:39:47.112Z,11.95
2017-10-27T03:42:13.655Z,11.52
2017-10-27T03:44:39.897Z,13.00
2017-10-27T03:47:06.117Z,13.23
2017-10-27T03:49:32.360Z,12.00
2017-10-27T03:51:58.577Z,10.48
2017-10-27T03:54:24.820Z,10.90
2017-10-27T03:56:51.063Z,9.77
2017-10-27T03:59:17.700Z,11.55
2017-10-27T04:01:44.288Z,11.15
2017-10-27T04:04:10.508Z,10.02
2017-10-27T04:06:36.717Z,10.63
2017-10-27T04:09:02.949Z,10.65
2017-10-27T04:11:29.167Z,9.68
2017-10-27T04:13:55.499Z,10.57
2017-10-27T04:16:21.786Z,9.55
2017-10-27T04:18:48.033Z,8.88
2017-10-27T04:21:14.265Z,9.20
2017-10-27T04:23:40.523Z,9.20
2017-10-27T04:26:06.747Z,9.30
2017-10-27T04:28:32.994Z,9.05
2017-10-27T04:30:59.259Z,8.77
2017-10-27T04:33:25.500Z,9.27
2017-10-27T04:35:52.116Z,10.20
2017-10-27T04:38:18.380Z,9.88
2017-10-27T04:40:44.622Z,9.60
2017-10-27T04:43:10.872Z,10.60
2017-10-27T04:45:37.086Z,10.10
2017-10-27T04:48:03.316Z,10.77
2017-10-27T04:50:29.543Z,9.80
2017-10-27T04:52:55.757Z,10.57
2017-10-27T04:55:22.028Z,9.60
2017-10-27T04:57:48.349Z,9.70
2017-10-27T05:00:14.618Z,10.57
2017-10-27T05:02:41.224Z,10.60
2017-10-27T05:05:07.496Z,11.12
2017-10-27T05:07:34.561Z,11.57
2017-10-27T05:10:00.807Z,11.50
2017-10-27T05:12:27.016Z,12.07
2017-10-27T05:14:53.242Z,11.82
2017-10-27T05:17:25.538Z,14.32
2017-10-27T05:19:57.917Z,15.27
2017-10-27T05:22:30.272Z,15.57
2017-10-27T05:24:56.496Z,14.43
2017-10-27T05:27:22.699Z,14.05
2017-10-27T05:29:49.330Z,13.85
2017-10-27T05:32:15.557Z,12.55
2017-10-27T05:34:41.789Z,13.85
2017-10-27T05:37:08.003Z,12.98
2017-10-27T05:39:34.625Z,12.68
2017-10-27T05:42:00.863Z,12.52
2017-10-27T05:44:27.146Z,13.50
2017-10-27T05:46:53.405Z,13.93
2017-10-27T05:49:19.663Z,13.25
2017-10-27T05:51:45.936Z,12.10
2017-10-27T05:54:12.186Z,12.00
2017-10-27T05:56:38.422Z,12.05
2017-10-27T05:59:04.656Z,11.82
2017-10-27T06:01:30.915Z,12.10
2017-10-27T06:03:57.132Z,11.88
2017-10-27T06:06:23.732Z,13.07
2017-10-27T06:08:49.919Z,12.85
2017-10-27T06:11:16.148Z,12.23
2017-10-27T06:13:42.350Z,10.68
2017-10-27T06:16:08.966Z,11.30
2017-10-27T06:18:35.162Z,11.93
2017-10-27T06:21:01.426Z,11.52
2017-10-27T06:23:28.005Z,12.15
2017-10-27T06:25:54.218Z,10.35
2017-10-27T06:28:21.662Z,9.60
2017-10-27T06:30:47.879Z,10.88
2017-10-27T06:33:14.055Z,9.68
2017-10-27T06:35:40.266Z,10.75
2017-10-27T06:38:06.531Z,9.30
2017-10-27T06:40:32.763Z,9.68
2017-10-27T06:42:58.994Z,8.85
2017-10-27T06:45:25.200Z,8.45
2017-10-27T06:47:51.420Z,8.73
2017-10-27T06:50:17.628Z,8.23
2017-10-27T06:52:44.219Z,8.60
2017-10-27T06:55:10.487Z,8.73
2017-10-27T06:57:37.159Z,8.52
2017-10-27T07:00:03.579Z,8.32
2017-10-27T07:02:29.826Z,8.13
2017-10-27T07:04:56.037Z,8.25
2017-10-27T07:07:22.368Z,8.50
2017-10-27T07:09:48.597Z,7.45
2017-10-27T07:12:15.565Z,7.75
2017-10-27T07:14:41.903Z,8.23
2017-10-27T07:17:08.181Z,7.47
2017-10-27T07:19:34.798Z,8.68
2017-10-27T07:22:01.073Z,8.48
2017-10-27T07:24:27.319Z,8.68
2017-10-27T07:26:53.540Z,8.40
2017-10-27T07:29:19.772Z,8.95
2017-10-27T07:31:46.107Z,8.45
2017-10-27T07:34:12.348Z,8.40
2017-10-27T07:36:38.629Z,8.40
2017-10-27T07:39:04.863Z,8.70
2017-10-27T07:41:31.366Z,8.90
2017-10-27T07:43:57.601Z,10.63
2017-10-27T07:46:24.232Z,9.50
2017-10-27T07:48:50.496Z,10.13
2017-10-27T07:51:16.745Z,9.82
2017-10-27T07:53:43.007Z,9.10
2017-10-27T07:56:09.300Z,8.32
2017-10-27T07:58:35.611Z,8.40
2017-10-27T08:01:01.938Z,9.00
2017-10-27T08:03:28.211Z,7.62
2017-10-27T08:05:54.478Z,7.78
2017-10-27T08:08:21.115Z,8.57
2017-10-27T08:10:47.429Z,7.57
2017-10-27T08:13:13.707Z,8.20
2017-10-27T08:15:39.981Z,8.25
2017-10-27T08:18:06.302Z,8.13
2017-10-27T08:20:32.583Z,5.15
2017-10-27T08:22:58.898Z,4.20
2017-10-27T08:25:25.939Z,2.55
2017-10-27T08:27:52.602Z,2.40
2017-10-27T08:30:18.836Z,1.92
2017-10-27T08:32:45.095Z,1.75
2017-10-27T08:35:11.332Z,2.20
2017-10-27T08:37:37.573Z,2.50
2017-10-27T08:40:03.803Z,2.15
2017-10-27T08:42:30.069Z,1.95
2017-10-27T08:44:56.305Z,2.28
2017-10-27T08:47:22.568Z,2.03
2017-10-27T08:49:48.859Z,1.70
2017-10-27T08:52:15.106Z,2.05
2017-10-27T08:54:41.362Z,2.15
2017-10-27T08:57:07.628Z,1.62
2017-10-27T08:59:34.209Z,1.60
2017-10-27T09:02:00.491Z,1.90
2017-10-27T09:04:27.103Z,1.95
2017-10-27T09:06:53.390Z,2.10
2017-10-27T09:09:19.649Z,1.70
2017-10-27T09:11:45.884Z,1.90
2017-10-27T09:14:12.180Z,1.85
2017-10-27T09:16:38.471Z,2.00
2017-10-27T09:19:05.074Z,1.92
2017-10-27T09:21:32.948Z,2.40
2017-10-27T09:23:59.206Z,2.20
2017-10-27T09:26:25.800Z,2.45
2017-10-27T09:28:52.069Z,3.20
2017-10-27T09:31:18.702Z,2.55
2017-10-27T09:33:45.315Z,2.60
2017-10-27T09:36:11.562Z,3.28
2017-10-27T09:38:38.210Z,3.53
2017-10-27T09:41:04.819Z,3.28
2017-10-27T09:43:31.080Z,3.85
2017-10-27T09:45:57.358Z,3.58
2017-10-27T09:48:23.635Z,3.42
2017-10-27T09:50:49.892Z,3.40
2017-10-27T09:53:16.151Z,3.10
2017-10-27T09:55:42.407Z,3.60
2017-10-27T09:58:09.035Z,3.85
2017-10-27T10:00:35.276Z,4.30
2017-10-27T10:03:01.915Z,4.20
2017-10-27T10:05:28.531Z,3.90
2017-10-27T10:07:54.872Z,4.15
2017-10-27T10:10:21.164Z,4.07
2017-10-27T10:12:47.432Z,5.12
2017-10-27T10:15:14.083Z,5.07
2017-10-27T10:17:40.701Z,4.95
2017-10-27T10:20:07.019Z,4.90
2017-10-27T10:22:33.250Z,5.15
2017-10-27T10:24:59.515Z,5.57
2017-10-27T10:27:25.747Z,5.33
2017-10-27T10:29:51.996Z,4.83
2017-10-27T10:32:18.269Z,5.30
2017-10-27T10:34:44.591Z,5.50
2017-10-27T10:37:10.854Z,5.63
2017-10-27T10:39:37.118Z,5.60
2017-10-27T10:42:03.342Z,5.50
2017-10-27T10:44:29.582Z,4.80
2017-10-27T10:46:55.816Z,5.47
2017-10-27T10:49:22.091Z,5.60
2017-10-27T10:51:48.691Z,6.10
2017-10-27T10:54:14.975Z,4.53
2017-10-27T10:56:41.204Z,5.00
2017-10-27T10:59:07.485Z,4.20
2017-10-27T11:01:34.291Z,4.40
2017-10-27T11:04:00.585Z,4.70
2017-10-27T11:06:27.285Z,3.93
2017-10-27T11:08:53.554Z,3.90
2017-10-27T11:11:20.165Z,4.23
2017-10-27T11:13:46.456Z,4.00
2017-10-27T11:16:12.776Z,4.07
2017-10-27T11:18:39.032Z,4.27
2017-10-27T11:21:05.310Z,4.13
2017-10-27T11:23:31.984Z,4.13
2017-10-27T11:25:58.258Z,3.20
2017-10-27T11:28:24.862Z,3.27
2017-10-27T11:30:51.300Z,3.00
2017-10-27T11:33:17.566Z,3.03
2017-10-27T11:35:43.823Z,4.20
2017-10-27T11:38:10.456Z,4.20
2017-10-27T11:40:37.199Z,3.80
2017-10-27T11:43:03.500Z,5.53
2017-10-27T11:45:30.631Z,4.07
2017-10-27T11:47:58.092Z,3.87
2017-10-27T11:50:24.355Z,4.33
2017-10-27T11:52:50.965Z,4.10
2017-10-27T11:55:17.261Z,3.87
2017-10-27T11:57:50.561Z,3.80
2017-10-27T12:00:16.849Z,4.27
2017-10-27T12:02:43.129Z,3.33
2017-10-27T12:05:09.393Z,4.10
2017-10-27T12:07:35.666Z,3.70
2017-10-27T12:10:01.928Z,4.83
2017-10-27T12:12:28.232Z,4.30
2017-10-27T12:14:54.491Z,4.40
2017-10-27T12:17:20.808Z,3.50
2017-10-27T12:19:47.710Z,4.00
2017-10-27T12:22:14.659Z,3.40
2017-10-27T12:24:40.902Z,3.13
2017-10-27T12:27:07.275Z,3.13
2017-10-27T12:29:33.577Z,3.50
2017-10-27T12:31:59.927Z,3.43
2017-10-27T12:34:26.325Z,3.77
2017-10-27T12:36:53.283Z,3.60
2017-10-27T12:39:19.861Z,3.43
2017-10-27T12:41:46.162Z,3.50
2017-10-27T12:44:12.455Z,3.20
2017-10-27T12:46:38.748Z,3.23
2017-10-27T12:49:05.006Z,3.03
2017-10-27T12:51:31.286Z,2.80
2017-10-27T12:53:57.590Z,2.60
2017-10-27T12:56:23.905Z,2.87
2017-10-27T12:58:50.165Z,3.07
2017-10-27T13:01:16.455Z,2.70
2017-10-27T13:03:42.763Z,2.57
2017-10-27T13:06:09.025Z,3.00
2017-10-27T13:08:35.344Z,3.37
2017-10-27T13:11:01.633Z,2.50
2017-10-27T13:13:28.009Z,1.57
2017-10-27T13:15:54.461Z,2.40
2017-10-27T13:18:20.765Z,1.90
2017-10-27T13:20:47.060Z,1.63
2017-10-27T13:23:13.372Z,2.10
2017-10-27T13:25:39.629Z,1.70
2017-10-27T13:28:05.943Z,1.87
2017-10-27T13:30:32.234Z,1.73
2017-10-27T13:32:58.543Z,1.97
2017-10-27T13:35:24.798Z,1.80
2017-10-27T13:37:51.080Z,2.10
2017-10-27T13:40:17.738Z,2.30
2017-10-27T13:42:44.200Z,2.17
2017-10-27T13:45:10.491Z,2.00
2017-10-27T13:47:37.169Z,2.33
2017-10-27T13:50:03.474Z,3.33
2017-10-27T13:52:29.807Z,3.00
2017-10-27T13:54:56.084Z,2.93
2017-10-27T13:57:22.341Z,3.43
2017-10-27T13:59:49.020Z,2.90
2017-10-27T14:02:15.296Z,2.70
2017-10-27T14:04:41.539Z,2.30
2017-10-27T14:07:07.982Z,2.27
2017-10-27T14:09:34.237Z,2.27
2017-10-27T14:12:00.516Z,2.13
2017-10-27T14:14:26.826Z,2.10
2017-10-27T14:16:53.107Z,2.03
2017-10-27T14:19:19.480Z,1.90
2017-10-27T14:21:45.827Z,1.83
2017-10-27T14:24:12.523Z,2.03
2017-10-27T14:26:38.793Z,1.47
2017-10-27T14:29:05.125Z,1.63
2017-10-27T14:31:31.361Z,1.70
2017-10-27T14:33:57.620Z,1.80
2017-10-27T14:36:24.242Z,1.40
2017-10-27T14:38:52.391Z,2.00
2017-10-27T14:41:18.857Z,2.50
2017-10-27T14:43:45.828Z,2.93
2017-10-27T14:46:13.360Z,2.70
2017-10-27T14:48:39.641Z,2.30
2017-10-27T14:51:05.894Z,2.13
2017-10-27T14:53:32.714Z,2.70
2017-10-27T14:55:58.968Z,2.73
2017-10-27T14:58:25.603Z,3.07
2017-10-27T15:00:52.181Z,2.80
2017-10-27T15:03:18.535Z,2.80
2017-10-27T15:05:44.805Z,3.30
2017-10-27T15:08:11.116Z,2.70
2017-10-27T15:10:37.421Z,3.80
2017-10-27T15:13:03.665Z,2.65
2017-10-27T15:15:29.982Z,2.97
2017-10-27T15:17:56.265Z,2.90
2017-10-27T15:20:22.924Z,3.27
2017-10-27T15:22:49.231Z,2.92
2017-10-27T15:25:15.537Z,3.00
2017-10-27T15:27:41.864Z,3.42
2017-10-27T15:30:08.182Z,2.97
2017-10-27T15:32:34.457Z,3.50
2017-10-27T15:35:01.063Z,3.37
2017-10-27T15:37:27.392Z,3.30
2017-10-27T15:39:54.607Z,3.40
2017-10-27T15:42:20.863Z,3.00
2017-10-27T15:44:47.128Z,3.30
2017-10-27T15:47:13.375Z,2.92
2017-10-27T15:49:39.632Z,3.30
2017-10-27T15:52:05.869Z,3.22
2017-10-27T15:54:33.180Z,3.22
2017-10-27T15:56:59.447Z,3.20
2017-10-27T15:59:25.776Z,2.20
2017-10-27T16:01:52.060Z,3.25
2017-10-27T16:04:18.649Z,3.17
2017-10-27T16:06:44.944Z,2.87
2017-10-27T16:09:11.149Z,2.80
2017-10-27T16:11:37.831Z,3.05
2017-10-27T16:14:04.094Z,2.75
2017-10-27T16:16:30.416Z,3.45
2017-10-27T16:18:56.683Z,2.80
2017-10-27T16:21:24.180Z,2.62
2017-10-27T16:23:50.450Z,2.65
2017-10-27T16:26:16.779Z,2.70
2017-10-27T16:28:43.454Z,2.65
2017-10-27T16:31:09.756Z,3.83
2017-10-27T16:33:36.018Z,3.47
2017-10-27T16:36:02.334Z,3.50
2017-10-27T16:38:28.577Z,3.10
2017-10-27T16:40:54.816Z,3.60
2017-10-27T16:43:21.082Z,4.10
2017-10-27T16:45:47.357Z,4.75
2017-10-27T16:48:14.599Z,4.55
2017-10-27T16:50:41.437Z,4.30
2017-10-27T16:53:07.714Z,5.80
2017-10-27T16:55:33.973Z,4.85
2017-10-27T16:58:00.253Z,4.82
2017-10-27T17:00:26.512Z,4.47
2017-10-27T17:02:52.828Z,5.03
2017-10-27T17:05:19.087Z,5.53
2017-10-27T17:07:45.332Z,4.80
2017-10-27T17:10:11.979Z,5.30
2017-10-27T17:12:38.873Z,5.10
2017-10-27T17:15:05.170Z,5.20
2017-10-27T17:17:31.492Z,4.28
2017-10-27T17:19:58.578Z,4.15
2017-10-27T17:22:24.825Z,4.60
2017-10-27T17:24:51.102Z,5.65
2017-10-27T17:27:17.435Z,4.43
2017-10-27T17:29:44.681Z,5.25
2017-10-27T17:32:11.717Z,3.95
2017-10-27T17:34:38.116Z,5.18
2017-10-27T17:37:04.396Z,4.30
2017-10-27T17:39:30.683Z,4.50
2017-10-27T17:41:57.035Z,4.85
2017-10-27T17:44:23.679Z,4.87
2017-10-27T17:46:50.225Z,5.50
2017-10-27T17:49:16.547Z,5.18
2017-10-27T17:51:42.931Z,4.97
2017-10-27T17:54:09.226Z,5.25
2017-10-27T17:56:35.510Z,5.68
2017-10-27T17:59:01.826Z,4.97
2017-10-27T18:01:28.187Z,6.28
2017-10-27T18:03:54.846Z,5.97
2017-10-27T18:06:22.065Z,6.18
2017-10-27T18:08:48.706Z,4.47
2017-10-27T18:11:14.958Z,6.00
2017-10-27T18:13:41.825Z,5.82
2017-10-27T18:16:08.165Z,5.70
2017-10-27T18:18:34.482Z,5.87
2017-10-27T18:21:00.772Z,5.00
2017-10-27T18:23:27.530Z,5.35
2017-10-27T18:25:53.828Z,5.20
2017-10-27T18:28:20.110Z,5.72
2017-10-27T18:30:46.400Z,5.60
2017-10-27T18:33:12.685Z,6.05
2017-10-27T18:35:39.031Z,5.82
2017-10-27T18:38:05.316Z,5.35
2017-10-27T18:40:32.539Z,5.25
2017-10-27T18:42:58.830Z,4.60
2017-10-27T18:45:25.116Z,6.22
2017-10-27T18:47:51.455Z,5.68
2017-10-27T18:50:18.666Z,5.22
2017-10-27T18:52:44.909Z,6.95
2017-10-27T18:55:11.225Z,6.95
2017-10-27T18:57:37.501Z,8.05
2017-10-27T19:00:04.645Z,7.22
2017-10-27T19:02:30.887Z,7.45
2017-10-27T19:04:57.941Z,8.55
2017-10-27T19:07:24.191Z,8.88
2017-10-27T19:09:50.447Z,9.55
2017-10-27T19:12:18.123Z,7.95
2017-10-27T19:14:44.568Z,7.05
2017-10-27T19:17:11.215Z,7.82
2017-10-27T19:19:37.526Z,7.37
2017-10-27T19:22:03.966Z,7.65
2017-10-27T19:24:30.257Z,7.00
2017-10-27T19:26:56.623Z,7.47
2017-10-27T19:29:22.947Z,6.53
2017-10-27T19:31:50.207Z,6.00
2017-10-27T19:34:16.498Z,7.03
2017-10-27T19:36:44.331Z,7.20
2017-10-27T19:39:12.502Z,6.25
2017-10-27T19:41:38.806Z,6.90
2017-10-27T19:44:05.153Z,7.37
2017-10-27T19:46:31.442Z,6.90
2017-10-27T19:48:58.113Z,6.90
2017-10-27T19:51:24.380Z,6.70
2017-10-27T19:53:50.614Z,6.90
2017-10-27T19:56:16.870Z,6.05
2017-10-27T19:58:43.114Z,7.07
2017-10-27T20:01:09.654Z,7.15
2017-10-27T20:03:36.181Z,7.80
2017-10-27T20:06:02.488Z,7.30
2017-10-27T20:08:29.130Z,7.57
2017-10-27T20:10:55.440Z,9.80
2017-10-27T20:13:22.303Z,10.90
2017-10-27T20:15:48.776Z,12.00
2017-10-27T20:18:15.099Z,8.20
2017-10-27T20:20:41.323Z,7.35
2017-10-27T20:23:07.545Z,7.50
2017-10-27T20:25:33.805Z,7.35
2017-10-27T20:28:00.700Z,7.57
2017-10-27T20:30:26.991Z,7.40
2017-10-27T20:32:53.227Z,7.60
2017-10-27T20:35:19.464Z,7.12
2017-10-27T20:37:45.753Z,7.40
2017-10-27T20:40:12.003Z,7.55
2017-10-27T20:42:38.333Z,7.37
2017-10-27T20:45:04.599Z,7.07
2017-10-27T20:47:31.217Z,7.85
2017-10-27T20:49:57.458Z,8.77
2017-10-27T20:52:23.749Z,9.15
2017-10-27T20:54:50.019Z,7.60
2017-10-27T20:57:16.289Z,7.72
2017-10-27T20:59:42.548Z,6.68
2017-10-27T21:02:08.829Z,8.02
2017-10-27T21:04:35.072Z,7.80
2017-10-27T21:07:01.392Z,8.05
2017-10-27T21:09:27.662Z,8.50
2017-10-27T21:11:53.913Z,8.85
2017-10-27T21:14:20.775Z,9.23
2017-10-27T21:16:47.419Z,8.57
2017-10-27T21:19:14.042Z,7.45
2017-10-27T21:21:40.679Z,7.57
2017-10-27T21:24:07.311Z,7.60
2017-10-27T21:26:34.335Z,7.10
2017-10-27T21:29:00.576Z,7.85
2017-10-27T21:31:27.618Z,8.00
2017-10-27T21:33:53.885Z,7.32
2017-10-27T21:36:20.141Z,7.93
2017-10-27T21:38:46.415Z,8.48
2017-10-27T21:41:12.700Z,9.93
2017-10-27T21:43:38.960Z,7.95
2017-10-27T21:46:05.190Z,8.00
2017-10-27T21:48:31.534Z,8.90
2017-10-27T21:50:57.752Z,8.75
2017-10-27T21:53:24.010Z,8.50
2017-10-27T21:55:50.267Z,9.40
2017-10-27T21:58:16.522Z,9.15
2017-10-27T22:00:42.774Z,7.70
2017-10-27T22:03:09.031Z,8.95
2017-10-27T22:05:35.686Z,8.38
2017-10-27T22:08:01.980Z,9.68
2017-10-27T22:10:28.235Z,8.95
2017-10-27T22:12:54.553Z,8.98
2017-10-27T22:15:20.786Z,9.75
2017-10-27T22:17:47.096Z,10.88
2017-10-27T22:20:13.348Z,11.65
2017-10-27T22:22:39.577Z,13.45
2017-10-27T22:25:05.780Z,14.07
2017-10-27T22:27:32.024Z,16.27
2017-10-27T22:29:58.348Z,13.40
2017-10-27T22:32:24.939Z,11.98
2017-10-27T22:34:51.148Z,10.25
2017-10-27T22:37:17.371Z,10.02
2017-10-27T22:39:43.609Z,8.65
2017-10-27T22:42:09.881Z,8.98
2017-10-27T22:44:36.089Z,8.55
2017-10-27T22:47:02.336Z,8.63
2017-10-27T22:49:28.529Z,8.48
2017-10-27T22:51:54.736Z,8.23
2017-10-27T22:54:20.968Z,7.93
2017-10-27T22:56:47.184Z,8.98
2017-10-27T22:59:13.413Z,8.32
2017-10-27T23:01:39.621Z,8.73
2017-10-27T23:04:05.864Z,8.27
2017-10-27T23:06:32.087Z,8.40
2017-10-27T23:08:58.347Z,9.90
2017-10-27T23:11:24.808Z,10.70
2017-10-27T23:13:51.071Z,9.10
2017-10-27T23:16:17.656Z,9.20
2017-10-27T23:18:43.938Z,10.10
2017-10-27T23:21:10.497Z,9.05
2017-10-27T23:23:37.208Z,7.93
2017-10-27T23:26:03.822Z,8.52
2017-10-27T23:28:30.021Z,8.68
2017-10-27T23:30:56.245Z,8.93
2017-10-27T23:33:22.472Z,9.20
2017-10-27T23:35:48.681Z,8.88
2017-10-27T23:38:14.885Z,8.50
2017-10-27T23:40:41.093Z,9.77
2017-10-27T23:43:07.288Z,8.40
2017-10-27T23:45:33.512Z,9.43
2017-10-27T23:47:59.738Z,9.23
2017-10-27T23:50:25.961Z,9.95
2017-10-27T23:52:52.173Z,9.63
2017-10-27T23:55:18.437Z,8.60
2017-10-27T23:57:44.655Z,9.25
